Time;durP1;ratioP1;P1;durP2;ratioP2;P2;SDS_P1;SDS_P2;PMS_P1;PMS_P2;Temp;Humidity;BMP_temperature;BMP_pressure;BME280_temperature;BME280_humidity;BME280_pressure;Samples;Min_cycle;Max_cycle;Signal;HPM_P1;HPM_P2
2023/04/16 00:31:30;;;;;;;55.17;21.73;;;8.90;99.90;;;;;;6328342;22;20477;-65
2023/04/16 00:33:57;;;;;;;57.63;23.75;;;8.90;99.90;;;;;;6332607;22;20015;-66
2023/04/16 00:36:23;;;;;;;61.40;23.33;;;8.90;99.90;;;;;;6304558;22;20416;-66
2023/04/16 00:38:50;;;;;;;56.88;24.33;;;8.90;99.90;;;;;;6332470;22;20030;-66
2023/04/16 00:41:16;;;;;;;67.15;25.00;;;8.90;99.90;;;;;;6332398;22;20022;-66
2023/04/16 00:43:42;;;;;;;62.83;25.60;;;8.90;99.90;;;;;;6332642;22;20674;-66
2023/04/16 00:46:07;;;;;;;67.38;25.55;;;8.90;99.90;;;;;;6332529;22;20022;-66
2023/04/16 00:48:36;;;;;;;58.30;23.42;;;8.90;99.90;;;;;;6332411;22;20015;-66
2023/04/16 00:51:06;;;;;;;66.75;27.02;;;8.90;99.90;;;;;;6332295;22;20018;-66
2023/04/16 00:53:33;;;;;;;52.90;24.27;;;8.90;99.90;;;;;;6332471;22;20010;-66
2023/04/16 00:56:01;;;;;;;63.95;26.27;;;8.90;99.90;;;;;;6332039;22;20050;-66
2023/04/16 00:58:28;;;;;;;57.42;26.27;;;8.90;99.90;;;;;;6363864;22;20015;-67
2023/04/16 01:00:54;;;;;;;66.03;26.25;;;9.00;99.90;;;;;;6335912;22;20023;-66
2023/04/16 01:03:20;;;;;;;58.17;26.25;;;9.00;99.90;;;;;;6335590;22;20022;-66
2023/04/16 01:05:48;;;;;;;58.28;26.48;;;8.90;99.90;;;;;;6365056;22;20022;-66
2023/04/16 01:08:20;;;;;;;60.55;26.05;;;8.90;99.90;;;;;;6336798;22;20029;-66
2023/04/16 01:10:46;;;;;;;65.78;24.98;;;9.00;99.90;;;;;;6335958;22;20096;-66
2023/04/16 01:13:12;;;;;;;59.03;26.55;;;8.90;99.90;;;;;;6363879;22;20386;-66
2023/04/16 01:15:38;;;;;;;59.25;26.35;;;9.00;99.90;;;;;;6363931;22;20018;-66
2023/04/16 01:18:17;;;;;;;57.30;26.63;;;8.90;99.90;;;;;;6364002;22;20018;-66
2023/04/16 01:20:44;;;;;;;57.42;23.92;;;9.00;99.90;;;;;;6335821;22;20376;-66
2023/04/16 01:23:10;;;;;;;59.60;27.35;;;9.00;99.90;;;;;;6363171;22;20418;-66
2023/04/16 01:25:36;;;;;;;53.25;25.35;;;9.00;99.90;;;;;;6362995;22;20011;-66
2023/04/16 01:28:02;;;;;;;53.42;25.30;;;9.00;99.90;;;;;;6334964;22;20041;-66
2023/04/16 01:30:28;;;;;;;57.15;26.77;;;8.90;99.90;;;;;;6362904;22;20669;-66
2023/04/16 01:32:54;;;;;;;57.38;26.83;;;8.90;99.90;;;;;;6335522;22;20093;-65
2023/04/16 01:35:20;;;;;;;56.10;25.50;;;9.00;99.90;;;;;;6363314;22;20421;-65
2023/04/16 01:37:45;;;;;;;52.15;25.00;;;9.00;99.90;;;;;;6363707;22;20025;-65
2023/04/16 01:40:11;;;;;;;50.95;24.63;;;8.90;99.90;;;;;;6335380;22;20353;-66
2023/04/16 01:42:37;;;;;;;47.30;24.10;;;8.90;99.90;;;;;;6363105;22;20158;-65
2023/04/16 01:45:04;;;;;;;59.40;26.35;;;9.00;99.90;;;;;;6363281;22;20014;-66
2023/04/16 01:47:30;;;;;;;56.05;25.92;;;9.00;99.90;;;;;;6363393;22;20024;-65
2023/04/16 01:49:55;;;;;;;61.50;27.83;;;9.00;99.90;;;;;;6363160;22;20101;-65
2023/04/16 01:52:21;;;;;;;57.03;26.35;;;8.90;99.90;;;;;;6363257;22;20063;-65
2023/04/16 01:54:47;;;;;;;51.78;24.48;;;8.90;99.90;;;;;;6363159;22;20021;-65
2023/04/16 01:57:12;;;;;;;60.05;26.42;;;8.90;99.90;;;;;;6334633;22;20113;-65
2023/04/16 01:59:38;;;;;;;48.58;24.02;;;8.90;99.90;;;;;;6362514;22;20026;-65
2023/04/16 02:02:15;;;;;;;51.35;25.15;;;8.90;99.90;;;;;;6363079;22;20095;-66
2023/04/16 02:04:42;;;;;;;55.63;25.23;;;8.90;99.90;;;;;;6335341;22;20010;-67
2023/04/16 02:07:08;;;;;;;57.72;24.55;;;8.90;99.90;;;;;;6334809;22;20034;-66
2023/04/16 02:09:36;;;;;;;50.25;23.88;;;8.90;99.90;;;;;;6309075;22;20053;-66
2023/04/16 02:12:02;;;;;;;55.90;25.80;;;8.90;99.90;;;;;;6363728;22;20011;-66
2023/04/16 02:14:28;;;;;;;50.30;24.95;;;8.90;99.90;;;;;;6363410;22;20024;-66
2023/04/16 02:16:54;;;;;;;57.38;25.42;;;8.90;99.90;;;;;;6363542;22;20022;-66
2023/04/16 02:19:20;;;;;;;51.78;25.80;;;8.80;99.90;;;;;;6363146;22;20023;-66
2023/04/16 02:21:47;;;;;;;52.97;26.35;;;8.80;99.90;;;;;;6335326;22;20010;-66
2023/04/16 02:24:12;;;;;;;56.13;26.08;;;8.90;99.90;;;;;;6362756;22;20075;-66
2023/04/16 02:26:38;;;;;;;53.38;25.55;;;8.80;99.90;;;;;;6362671;22;20022;-66
2023/04/16 02:29:04;;;;;;;58.30;25.08;;;8.80;99.90;;;;;;6362930;22;20152;-65
2023/04/16 02:31:30;;;;;;;53.50;23.42;;;8.80;99.90;;;;;;6362683;22;20022;-65
2023/04/16 02:33:56;;;;;;;57.35;26.02;;;8.80;99.90;;;;;;6335386;22;20127;-66
2023/04/16 02:36:22;;;;;;;55.08;25.13;;;8.80;99.90;;;;;;6363532;22;20046;-65
2023/04/16 02:38:48;;;;;;;52.50;26.08;;;8.80;99.90;;;;;;6363265;22;20091;-65
2023/04/16 02:41:13;;;;;;;58.15;27.02;;;8.70;99.90;;;;;;6335029;22;20022;-66
2023/04/16 02:43:39;;;;;;;50.40;25.02;;;8.70;99.90;;;;;;6362852;22;20082;-65
2023/04/16 02:46:05;;;;;;;54.38;26.27;;;8.70;99.90;;;;;;6334723;22;20030;-65
2023/04/16 02:48:31;;;;;;;53.25;23.60;;;8.70;99.90;;;;;;6362707;22;20307;-65
2023/04/16 02:50:57;;;;;;;53.60;24.88;;;8.80;99.90;;;;;;6362311;22;20018;-65
2023/04/16 02:53:23;;;;;;;57.45;26.35;;;8.70;99.90;;;;;;6362456;22;20093;-67
2023/04/16 02:55:53;;;;;;;54.55;24.63;;;8.70;99.90;;;;;;6362431;22;20045;-67
2023/04/16 02:58:20;;;;;;;48.13;24.25;;;8.70;99.90;;;;;;6362601;22;20026;-66
2023/04/16 03:00:46;;;;;;;54.08;23.77;;;8.70;99.90;;;;;;6334429;22;20097;-66
2023/04/16 03:03:12;;;;;;;52.13;24.83;;;8.70;99.90;;;;;;6362525;22;20061;-66
2023/04/16 03:05:37;;;;;;;68.63;26.88;;;8.70;99.90;;;;;;6362516;22;20026;-66
2023/04/16 03:08:03;;;;;;;51.95;26.08;;;8.70;99.90;;;;;;6362821;22;20094;-67
2023/04/16 03:10:31;;;;;;;57.33;25.60;;;8.60;99.90;;;;;;6362518;22;20595;-66
2023/04/16 03:12:57;;;;;;;52.50;26.35;;;8.60;99.90;;;;;;6364380;22;20007;-66
2023/04/16 03:15:23;;;;;;;54.53;27.98;;;8.60;99.90;;;;;;6336263;22;20081;-66
2023/04/16 03:17:48;;;;;;;49.67;25.58;;;8.60;99.90;;;;;;6364455;22;20021;-66
2023/04/16 03:20:15;;;;;;;56.97;26.40;;;8.60;99.90;;;;;;6364742;22;20047;-66
2023/04/16 03:22:41;;;;;;;59.85;26.15;;;8.60;99.90;;;;;;6364757;22;20384;-66
2023/04/16 03:25:07;;;;;;;58.70;26.67;;;8.60;99.90;;;;;;6364109;22;20022;-66
2023/04/16 03:27:34;;;;;;;52.63;26.15;;;8.60;99.90;;;;;;6364598;22;20080;-66
2023/04/16 03:30:00;;;;;;;62.00;26.80;;;8.60;99.90;;;;;;6364412;22;20136;-66
2023/04/16 03:32:25;;;;;;;52.97;26.02;;;8.50;99.90;;;;;;6364330;22;20018;-66
2023/04/16 03:34:51;;;;;;;51.13;26.20;;;8.60;99.90;;;;;;6364435;22;20294;-66
2023/04/16 03:37:17;;;;;;;58.28;27.58;;;8.50;99.90;;;;;;6364567;22;20279;-66
2023/04/16 03:39:43;;;;;;;52.70;25.10;;;8.50;99.90;;;;;;6364049;22;20018;-66
2023/04/16 03:42:08;;;;;;;49.60;24.48;;;8.50;99.90;;;;;;6364495;22;20334;-66
2023/04/16 03:44:34;;;;;;;59.33;25.27;;;8.60;99.90;;;;;;6364222;22;20022;-66
2023/04/16 03:47:00;;;;;;;51.65;25.70;;;8.50;99.90;;;;;;6364123;22;20019;-66
2023/04/16 03:49:26;;;;;;;54.33;22.77;;;8.50;99.90;;;;;;6364547;22;20033;-66
2023/04/16 03:51:51;;;;;;;53.05;25.75;;;8.50;99.90;;;;;;6364856;22;20085;-66
2023/04/16 03:54:17;;;;;;;51.65;25.83;;;8.50;99.90;;;;;;6336200;22;20022;-66
2023/04/16 03:56:43;;;;;;;55.47;24.83;;;8.40;99.90;;;;;;6364747;22;20777;-66
2023/04/16 03:59:09;;;;;;;50.42;23.95;;;8.40;99.90;;;;;;6335987;22;20083;-66
2023/04/16 04:01:34;;;;;;;52.78;26.17;;;8.30;99.90;;;;;;6336171;22;20030;-67
2023/04/16 04:04:00;;;;;;;55.25;26.08;;;8.40;99.90;;;;;;6364361;22;20049;-66
2023/04/16 04:06:26;;;;;;;51.95;23.83;;;8.30;99.90;;;;;;6364310;22;20024;-66
2023/04/16 04:08:52;;;;;;;51.38;24.08;;;8.30;99.90;;;;;;6363894;22;20069;-66
2023/04/16 04:11:18;;;;;;;47.95;23.50;;;8.30;99.90;;;;;;6364277;22;20010;-65
2023/04/16 04:13:44;;;;;;;52.33;26.13;;;8.30;99.90;;;;;;6364469;22;20338;-65
2023/04/16 04:16:10;;;;;;;56.35;24.27;;;8.30;99.90;;;;;;6335581;22;20022;-64
2023/04/16 04:18:36;;;;;;;54.60;24.60;;;8.30;99.90;;;;;;6363617;22;20010;-65
2023/04/16 04:21:05;;;;;;;56.25;26.10;;;8.30;99.90;;;;;;6363766;22;20775;-64
2023/04/16 04:23:31;;;;;;;51.42;23.08;;;8.30;99.90;;;;;;6363302;22;20014;-65
2023/04/16 04:25:56;;;;;;;63.53;26.80;;;8.30;99.90;;;;;;6364154;22;20022;-65
2023/04/16 04:28:22;;;;;;;53.63;25.08;;;8.30;99.90;;;;;;6363985;22;20018;-65
2023/04/16 04:30:48;;;;;;;51.25;24.70;;;8.30;99.90;;;;;;6335571;22;20031;-65
2023/04/16 04:33:13;;;;;;;54.97;26.05;;;8.30;99.90;;;;;;6363770;22;20075;-65
2023/04/16 04:35:39;;;;;;;52.83;25.92;;;8.30;99.90;;;;;;6363593;22;20047;-65
2023/04/16 04:38:05;;;;;;;55.92;26.10;;;8.40;99.90;;;;;;6363404;22;20070;-65
2023/04/16 04:40:31;;;;;;;54.13;26.75;;;8.40;99.90;;;;;;6363316;22;20010;-65
2023/04/16 04:42:57;;;;;;;52.35;25.90;;;8.40;99.90;;;;;;6309640;22;20022;-66
2023/04/16 04:45:25;;;;;;;55.10;25.88;;;8.40;99.90;;;;;;6363715;22;20039;-65
2023/04/16 04:47:52;;;;;;;55.85;26.52;;;8.40;99.90;;;;;;6335385;22;20025;-66
2023/04/16 04:50:17;;;;;;;57.80;26.05;;;8.40;99.90;;;;;;6364007;22;20018;-65
2023/04/16 04:52:43;;;;;;;49.55;25.58;;;8.40;99.90;;;;;;6363732;22;20097;-66
2023/04/16 04:55:09;;;;;;;57.70;26.80;;;8.40;99.90;;;;;;6336060;22;20014;-66
2023/04/16 04:57:34;;;;;;;52.20;25.73;;;8.40;99.90;;;;;;6364301;22;20085;-66
2023/04/16 05:00:02;;;;;;;60.47;27.00;;;8.40;99.90;;;;;;6363944;22;20342;-66
2023/04/16 05:02:28;;;;;;;51.28;23.48;;;8.40;99.90;;;;;;6363936;22;20025;-66
2023/04/16 05:04:54;;;;;;;49.70;26.00;;;8.40;99.90;;;;;;6363008;22;20063;-66
2023/04/16 05:07:20;;;;;;;45.97;23.75;;;8.40;99.90;;;;;;6363867;22;20116;-66
2023/04/16 05:09:46;;;;;;;52.53;25.27;;;8.40;99.90;;;;;;6363797;22;20014;-66
2023/04/16 05:12:12;;;;;;;52.80;26.88;;;8.40;99.90;;;;;;6363450;22;20489;-66
2023/04/16 05:14:37;;;;;;;53.38;25.98;;;8.50;99.90;;;;;;6363246;22;20476;-66
2023/04/16 05:17:03;;;;;;;54.03;25.00;;;8.50;99.90;;;;;;6335201;22;20114;-66
2023/04/16 05:19:29;;;;;;;56.38;25.10;;;8.50;99.90;;;;;;6363253;22;20090;-66
2023/04/16 05:21:55;;;;;;;60.50;28.02;;;8.50;99.90;;;;;;6335097;22;20061;-66
2023/04/16 05:24:22;;;;;;;54.05;26.10;;;8.50;99.90;;;;;;6363698;22;20007;-66
2023/04/16 05:26:47;;;;;;;56.28;25.65;;;8.50;99.90;;;;;;6363212;22;20341;-66
2023/04/16 05:29:13;;;;;;;54.55;24.83;;;8.50;99.90;;;;;;6363714;22;20029;-66
2023/04/16 05:31:39;;;;;;;54.60;25.98;;;8.50;99.90;;;;;;6363120;22;20023;-66
2023/04/16 05:34:04;;;;;;;52.22;25.25;;;8.60;99.90;;;;;;6363337;22;20607;-66
2023/04/16 05:36:30;;;;;;;53.83;24.98;;;8.60;99.90;;;;;;6364009;22;20037;-67
2023/04/16 05:38:56;;;;;;;55.17;26.30;;;8.60;99.90;;;;;;6364223;22;20018;-66
2023/04/16 05:41:22;;;;;;;59.78;25.42;;;8.60;99.90;;;;;;6365614;22;20018;-66
2023/04/16 05:43:47;;;;;;;48.90;25.83;;;8.60;99.90;;;;;;6364161;22;20625;-66
2023/04/16 05:46:13;;;;;;;53.28;25.35;;;8.70;99.90;;;;;;6363218;22;20019;-66
2023/04/16 05:48:39;;;;;;;54.70;25.45;;;8.70;99.90;;;;;;6363981;22;20014;-65
2023/04/16 05:51:05;;;;;;;59.38;26.90;;;8.70;99.90;;;;;;6364413;22;20056;-64
2023/04/16 05:53:30;;;;;;;59.70;25.13;;;8.70;99.90;;;;;;6364254;22;20022;-65
2023/04/16 05:55:56;;;;;;;55.30;25.08;;;8.70;99.90;;;;;;6335366;22;20050;-65
2023/04/16 05:58:22;;;;;;;64.13;25.60;;;8.70;99.90;;;;;;6335685;22;20015;-66
2023/04/16 06:00:47;;;;;;;61.15;24.08;;;8.70;99.90;;;;;;6363831;22;20025;-66
2023/04/16 06:03:13;;;;;;;53.33;24.27;;;8.70;99.90;;;;;;6335242;22;20125;-66
2023/04/16 06:05:39;;;;;;;53.35;24.00;;;8.80;99.90;;;;;;6363517;22;20022;-66
2023/04/16 06:08:05;;;;;;;44.95;24.08;;;8.70;99.90;;;;;;6363235;22;20678;-65
2023/04/16 06:10:30;;;;;;;46.33;23.50;;;8.70;99.90;;;;;;6363439;22;20156;-65
2023/04/16 06:12:56;;;;;;;50.83;24.42;;;8.70;99.90;;;;;;6335053;22;20357;-65
2023/04/16 06:15:22;;;;;;;47.00;24.38;;;8.70;99.90;;;;;;6335068;22;20076;-65
2023/04/16 06:17:49;;;;;;;52.08;24.02;;;8.80;99.90;;;;;;6334825;22;20050;-66
2023/04/16 06:20:14;;;;;;;46.55;21.83;;;8.80;99.90;;;;;;6362919;22;20087;-66
2023/04/16 06:22:40;;;;;;;50.53;24.83;;;8.80;99.90;;;;;;6362704;22;20018;-65
2023/04/16 06:25:06;;;;;;;55.70;26.17;;;8.80;99.90;;;;;;6363057;22;20041;-65
2023/04/16 06:27:32;;;;;;;51.50;22.95;;;8.80;99.90;;;;;;6334740;22;20037;-66
2023/04/16 06:29:57;;;;;;;53.10;24.13;;;8.90;99.90;;;;;;6334597;22;20018;-66
2023/04/16 06:32:23;;;;;;;50.67;22.55;;;8.80;99.90;;;;;;6363048;22;20078;-65
2023/04/16 06:34:49;;;;;;;40.95;22.48;;;8.90;99.90;;;;;;6334619;22;20135;-66
2023/04/16 06:37:15;;;;;;;43.95;21.75;;;8.90;99.90;;;;;;6362997;22;20026;-66
2023/04/16 06:39:41;;;;;;;49.42;23.27;;;8.80;99.90;;;;;;6363211;22;20025;-66
2023/04/16 06:42:07;;;;;;;46.72;22.42;;;8.90;99.90;;;;;;6363085;22;20374;-66
2023/04/16 06:44:32;;;;;;;46.38;23.10;;;8.80;99.90;;;;;;6363446;22;20068;-66
2023/04/16 06:46:58;;;;;;;42.08;22.52;;;8.80;99.90;;;;;;6334970;22;20019;-66
2023/04/16 06:49:24;;;;;;;47.60;23.02;;;8.90;99.90;;;;;;6364803;22;20033;-66
2023/04/16 06:51:50;;;;;;;54.30;25.27;;;8.90;99.90;;;;;;6364993;22;20014;-66
2023/04/16 06:54:15;;;;;;;58.30;23.50;;;8.90;99.90;;;;;;6364781;22;20369;-66
2023/04/16 06:56:41;;;;;;;44.22;23.35;;;8.90;99.90;;;;;;6336361;22;20026;-66
2023/04/16 06:59:07;;;;;;;53.92;22.42;;;9.00;99.90;;;;;;6364328;22;20196;-66
2023/04/16 07:01:33;;;;;;;57.13;24.77;;;8.90;99.90;;;;;;6364295;22;20019;-66
2023/04/16 07:03:59;;;;;;;53.15;23.25;;;9.00;99.90;;;;;;6364839;22;20022;-66
2023/04/16 07:06:25;;;;;;;44.97;22.00;;;9.00;99.90;;;;;;6364789;22;20484;-67
2023/04/16 07:08:51;;;;;;;46.30;21.75;;;9.00;99.90;;;;;;6364829;22;20406;-65
2023/04/16 07:11:18;;;;;;;48.75;22.63;;;9.10;99.90;;;;;;6364738;22;20105;-65
2023/04/16 07:13:43;;;;;;;45.95;21.70;;;9.10;99.90;;;;;;6336288;22;20018;-66
2023/04/16 07:16:09;;;;;;;45.13;23.45;;;9.20;99.90;;;;;;6364695;22;20029;-66
2023/04/16 07:18:35;;;;;;;45.83;22.08;;;9.20;99.90;;;;;;6336238;22;20036;-66
2023/04/16 07:21:01;;;;;;;49.40;24.20;;;9.20;99.90;;;;;;6364532;22;20052;-65
2023/04/16 07:23:26;;;;;;;45.38;21.48;;;9.20;99.90;;;;;;6364173;22;20071;-66
2023/04/16 07:25:52;;;;;;;51.28;23.52;;;9.30;99.90;;;;;;6364005;22;20085;-65
2023/04/16 07:28:19;;;;;;;46.10;23.30;;;9.30;99.90;;;;;;6364440;22;20018;-66
2023/04/16 07:30:44;;;;;;;49.05;22.98;;;9.40;99.90;;;;;;6335371;22;20034;-66
2023/04/16 07:33:10;;;;;;;53.28;22.20;;;9.30;99.90;;;;;;6364420;22;20457;-67
2023/04/16 07:35:36;;;;;;;51.28;23.90;;;9.40;99.90;;;;;;6310457;22;20543;-66
2023/04/16 07:38:01;;;;;;;48.75;23.38;;;9.40;99.90;;;;;;6364543;22;20102;-66
2023/04/16 07:40:27;;;;;;;46.72;22.30;;;9.50;99.90;;;;;;6364236;22;20024;-66
2023/04/16 07:42:54;;;;;;;43.47;22.92;;;9.50;99.90;;;;;;6336466;22;20023;-66
2023/04/16 07:45:20;;;;;;;49.70;24.38;;;9.60;99.90;;;;;;6310789;22;20050;-67
2023/04/16 07:47:46;;;;;;;47.20;22.73;;;9.60;99.90;;;;;;6365455;22;20049;-67
2023/04/16 07:50:12;;;;;;;42.75;22.52;;;9.60;99.90;;;;;;6365700;22;20024;-66
2023/04/16 07:52:40;;;;;;;45.60;21.70;;;9.70;99.90;;;;;;6365657;22;20091;-67
2023/04/16 07:55:09;;;;;;;47.67;21.90;;;9.60;99.90;;;;;;6365064;22;20014;-67
2023/04/16 07:57:35;;;;;;;48.35;22.60;;;9.60;99.90;;;;;;6310590;22;20461;-67
2023/04/16 08:00:06;;;;;;;42.42;20.45;;;9.60;99.90;;;;;;6364755;22;20022;-66
2023/04/16 08:02:32;;;;;;;48.53;24.03;;;9.70;99.90;;;;;;6337161;22;20026;-66
2023/04/16 08:04:58;;;;;;;42.40;21.90;;;9.70;99.90;;;;;;6365303;22;20029;-67
2023/04/16 08:07:24;;;;;;;44.95;22.35;;;9.70;99.90;;;;;;6337026;22;20414;-67
2023/04/16 08:09:51;;;;;;;42.78;21.42;;;9.70;99.90;;;;;;6365650;22;20105;-66
2023/04/16 08:12:17;;;;;;;43.75;22.13;;;9.90;99.90;;;;;;6336899;22;20746;-67
2023/04/16 08:14:44;;;;;;;46.15;22.65;;;9.80;99.90;;;;;;6336531;22;20079;-67
2023/04/16 08:17:13;;;;;;;43.58;22.42;;;9.80;99.90;;;;;;6365250;22;20423;-67
2023/04/16 08:19:39;;;;;;;46.95;21.05;;;9.80;99.90;;;;;;6336971;22;20067;-65
2023/04/16 08:22:05;;;;;;;41.67;21.67;;;9.90;99.90;;;;;;6310786;22;20022;-67
2023/04/16 08:24:31;;;;;;;39.28;20.13;;;10.00;99.90;;;;;;6364677;22;20015;-67
2023/04/16 08:26:57;;;;;;;41.97;21.38;;;9.80;99.90;;;;;;6364698;22;20018;-67
2023/04/16 08:29:25;;;;;;;40.78;21.45;;;9.90;99.90;;;;;;6364930;22;20022;-67
2023/04/16 08:31:54;;;;;;;40.63;20.95;;;10.10;99.90;;;;;;6363030;22;20136;-66
2023/04/16 08:34:20;;;;;;;36.58;21.17;;;10.00;99.90;;;;;;6363279;22;20025;-67
2023/04/16 08:36:46;;;;;;;38.53;20.52;;;10.10;99.90;;;;;;6334815;22;20417;-66
2023/04/16 08:39:11;;;;;;;39.33;19.98;;;10.30;99.90;;;;;;6362974;22;20018;-67
2023/04/16 08:41:41;;;;;;;42.88;21.92;;;10.20;99.90;;;;;;6363231;22;20010;-68
2023/04/16 08:44:10;;;;;;;41.72;21.00;;;10.30;99.90;;;;;;6334511;22;20105;-66
2023/04/16 08:46:37;;;;;;;44.80;20.75;;;10.40;99.90;;;;;;6363030;22;20283;-65
2023/04/16 08:49:06;;;;;;;40.28;21.75;;;10.40;99.90;;;;;;6363667;22;20062;-65
2023/04/16 08:51:34;;;;;;;42.05;20.67;;;10.50;99.90;;;;;;6335271;22;20379;-65
2023/04/16 08:54:29;;;;;;;40.10;20.20;;;10.50;99.90;;;;;;6335684;22;20019;-66
2023/04/16 08:56:57;;;;;;;37.00;19.52;;;10.60;99.90;;;;;;6363215;22;20063;-65
2023/04/16 08:59:24;;;;;;;40.00;19.55;;;10.70;99.90;;;;;;6335159;22;20026;-66
2023/04/16 09:01:51;;;;;;;36.65;20.65;;;10.70;99.90;;;;;;6335234;22;20022;-66
2023/04/16 09:04:19;;;;;;;32.15;17.88;;;10.70;99.90;;;;;;6363830;22;20342;-66
2023/04/16 09:06:47;;;;;;;35.35;17.88;;;10.70;99.90;;;;;;6335129;22;20034;-66
2023/04/16 09:09:14;;;;;;;35.60;19.17;;;10.70;99.90;;;;;;6334784;22;20022;-66
2023/04/16 09:11:40;;;;;;;39.35;19.40;;;10.90;99.90;;;;;;6363609;22;20089;-66
2023/04/16 09:14:10;;;;;;;36.00;18.20;;;10.90;99.90;;;;;;6363568;22;20444;-66
2023/04/16 09:16:35;;;;;;;36.08;18.92;;;11.00;99.90;;;;;;6363446;22;20014;-67
2023/04/16 09:19:01;;;;;;;35.63;18.60;;;11.10;99.90;;;;;;6363617;22;20049;-66
2023/04/16 09:21:27;;;;;;;31.23;17.80;;;11.20;99.90;;;;;;6363630;22;20034;-66
2023/04/16 09:23:53;;;;;;;32.83;17.17;;;11.30;99.90;;;;;;6363807;22;20093;-67
2023/04/16 09:26:19;;;;;;;33.45;16.88;;;11.50;99.90;;;;;;6363056;22;20045;-66
2023/04/16 09:28:47;;;;;;;30.67;16.98;;;11.40;99.90;;;;;;6362862;22;20022;-67
2023/04/16 09:31:14;;;;;;;36.35;17.23;;;11.40;99.90;;;;;;6313984;22;1134117;-67
2023/04/16 09:33:41;;;;;;;27.83;16.00;;;11.60;99.90;;;;;;6364280;22;20018;-67
2023/04/16 09:36:07;;;;;;;31.75;17.42;;;11.60;99.90;;;;;;6364127;22;20061;-67
2023/04/16 09:38:46;;;;;;;29.42;16.52;;;11.70;99.90;;;;;;6364717;22;20020;-67
2023/04/16 09:41:15;;;;;;;32.33;17.88;;;11.70;99.90;;;;;;6336358;22;20056;-67
2023/04/16 09:43:48;;;;;;;30.02;16.25;;;11.80;99.90;;;;;;6364046;22;20014;-67
2023/04/16 09:46:14;;;;;;;31.60;17.00;;;11.80;99.90;;;;;;6364238;22;20022;-67
2023/04/16 09:48:39;;;;;;;34.70;16.55;;;11.90;99.90;;;;;;6336228;22;20487;-67
2023/04/16 09:51:06;;;;;;;29.38;15.02;;;11.90;99.90;;;;;;6335816;22;20010;-67
2023/04/16 09:53:32;;;;;;;28.75;15.77;;;11.90;99.90;;;;;;6364355;22;20109;-67
2023/04/16 09:56:04;;;;;;;30.08;15.68;;;11.90;99.90;;;;;;6363738;22;20054;-67
2023/04/16 09:58:30;;;;;;;22.00;15.13;;;12.00;99.90;;;;;;6335789;22;20514;-67
2023/04/16 10:01:02;;;;;;;26.17;15.73;;;12.10;99.90;;;;;;6335770;22;20018;-67
2023/04/16 10:03:32;;;;;;;23.15;15.68;;;12.10;99.90;;;;;;6309507;22;20025;-67
2023/04/16 10:06:12;;;;;;;31.40;15.95;;;12.10;99.90;;;;;;6363853;22;20022;-67
2023/04/16 10:08:48;;;;;;;24.45;15.40;;;12.20;99.90;;;;;;6363901;22;20383;-67
2023/04/16 10:11:15;;;;;;;28.08;15.82;;;12.20;99.90;;;;;;6335235;22;20478;-68
2023/04/16 10:13:41;;;;;;;24.52;15.40;;;12.30;99.90;;;;;;6336050;22;20018;-67
2023/04/16 10:16:08;;;;;;;29.65;14.95;;;12.30;99.90;;;;;;6335665;22;20109;-67
2023/04/16 10:18:37;;;;;;;33.58;17.05;;;12.50;99.90;;;;;;6335763;22;20543;-67
2023/04/16 10:21:03;;;;;;;33.80;17.13;;;12.50;99.90;;;;;;6335866;22;20461;-67
2023/04/16 10:23:29;;;;;;;30.42;15.80;;;12.50;99.90;;;;;;6366503;22;20101;-67
2023/04/16 10:25:56;;;;;;;38.80;18.50;;;12.40;99.90;;;;;;6366209;22;20341;-67
2023/04/16 10:28:23;;;;;;;27.98;15.13;;;12.60;99.90;;;;;;6339920;22;20034;-67
2023/04/16 10:30:53;;;;;;;29.88;15.23;;;12.90;99.90;;;;;;6366276;22;20050;-67
2023/04/16 10:33:26;;;;;;;32.28;17.65;;;12.60;99.90;;;;;;6366532;22;20014;-67
2023/04/16 10:36:05;;;;;;;;;;;12.60;99.90;;;;;;6338816;22;20054;-67
2023/04/16 10:38:31;;;;;;;28.35;14.48;;;12.60;99.90;;;;;;6337685;22;19990;-67
2023/04/16 10:40:59;;;;;;;26.55;15.20;;;12.70;99.90;;;;;;6366222;22;20018;-67
2023/04/16 10:43:25;;;;;;;25.45;15.05;;;12.80;99.90;;;;;;6366137;22;20310;-68
2023/04/16 10:45:53;;;;;;;31.23;16.42;;;12.90;99.90;;;;;;6337444;22;20116;-66
2023/04/16 10:48:19;;;;;;;33.97;15.77;;;12.80;99.90;;;;;;6337525;22;20208;-67
2023/04/16 10:50:56;;;;;;;27.65;15.93;;;12.80;99.90;;;;;;6365451;22;20115;-68
2023/04/16 10:53:26;;;;;;;27.83;15.57;;;13.00;99.90;;;;;;6365327;22;20010;-67
2023/04/16 10:56:16;;;;;;;27.02;15.45;;;13.00;99.90;;;;;;6365480;22;20022;-67
2023/04/16 10:58:41;;;;;;;26.08;14.73;;;13.00;99.90;;;;;;6310418;22;20018;-68
2023/04/16 11:01:12;;;;;;;31.00;15.95;;;13.00;99.90;;;;;;6365310;22;20378;-67
2023/04/16 11:03:42;;;;;;;35.58;16.80;;;13.10;99.90;;;;;;6365644;22;20056;-68
2023/04/16 11:06:16;;;;;;;33.53;17.30;;;13.40;99.90;;;;;;6337048;22;20022;-68
2023/04/16 11:08:46;;;;;;;32.53;15.65;;;13.30;99.90;;;;;;6365447;22;20359;-68
2023/04/16 11:11:12;;;;;;;25.85;14.93;;;13.40;99.90;;;;;;6365694;22;20329;-68
2023/04/16 11:13:42;;;;;;;32.33;15.98;;;13.30;99.90;;;;;;6365775;22;20673;-67
2023/04/16 11:16:08;;;;;;;26.42;14.82;;;13.40;99.90;;;;;;6365557;22;20046;-68
2023/04/16 11:18:34;;;;;;;25.10;14.75;;;13.50;99.90;;;;;;6365549;22;20022;-68
2023/04/16 11:21:00;;;;;;;27.80;13.93;;;13.50;99.90;;;;;;6365267;22;20605;-68
2023/04/16 11:23:25;;;;;;;23.90;13.80;;;13.50;99.90;;;;;;6337042;22;20026;-68
2023/04/16 11:25:55;;;;;;;29.08;14.70;;;13.50;99.90;;;;;;6311161;22;20018;-68
2023/04/16 11:28:32;;;;;;;24.48;15.70;;;13.40;99.90;;;;;;6365643;22;20106;-68
2023/04/16 11:30:58;;;;;;;30.30;15.48;;;13.50;99.90;;;;;;6365398;22;20206;-68
2023/04/16 11:33:24;;;;;;;25.95;13.80;;;13.40;99.90;;;;;;6365633;22;20019;-68
2023/04/16 11:35:57;;;;;;;24.75;13.95;;;13.40;99.90;;;;;;6365582;22;20018;-68
2023/04/16 11:38:35;;;;;;;25.95;13.55;;;13.40;99.90;;;;;;6365834;22;20020;-68
2023/04/16 11:41:01;;;;;;;29.65;15.05;;;13.50;99.90;;;;;;6364993;22;20018;-68
2023/04/16 11:43:27;;;;;;;28.38;14.30;;;13.50;99.90;;;;;;6365175;22;20014;-68
2023/04/16 11:45:57;;;;;;;27.15;13.45;;;13.50;99.90;;;;;;6364871;22;20105;-68
2023/04/16 11:48:23;;;;;;;27.88;14.20;;;13.40;99.90;;;;;;6365391;22;20018;-68
2023/04/16 11:50:58;;;;;;;24.98;13.75;;;13.50;99.90;;;;;;6365230;22;20021;-68
2023/04/16 11:53:24;;;;;;;24.30;14.20;;;13.40;99.90;;;;;;6337440;22;20334;-68
2023/04/16 11:55:50;;;;;;;27.48;14.27;;;13.40;99.90;;;;;;6336836;22;20022;-68
2023/04/16 11:58:16;;;;;;;21.40;13.13;;;13.40;99.90;;;;;;6365121;22;20018;-68
2023/04/16 12:00:41;;;;;;;24.80;14.02;;;13.60;99.90;;;;;;6365342;22;20101;-68
2023/04/16 12:03:07;;;;;;;27.67;14.20;;;13.70;99.90;;;;;;6365505;22;20160;-68
2023/04/16 12:05:36;;;;;;;23.15;12.95;;;13.60;99.90;;;;;;6364939;22;20080;-68
2023/04/16 12:08:03;;;;;;;20.45;12.98;;;13.60;99.90;;;;;;6365278;22;20018;-68
2023/04/16 12:10:33;;;;;;;21.05;13.25;;;13.70;99.90;;;;;;6311129;22;20022;-68
2023/04/16 12:13:16;;;;;;;22.55;13.15;;;13.70;99.90;;;;;;6337030;22;20026;-68
2023/04/16 12:15:52;;;;;;;23.25;12.57;;;13.70;99.90;;;;;;6365416;22;20128;-68
2023/04/16 12:18:21;;;;;;;21.15;11.98;;;13.60;99.90;;;;;;6365450;22;20014;-68
2023/04/16 12:20:48;;;;;;;27.05;13.48;;;13.70;99.90;;;;;;6336207;22;20473;-68
2023/04/16 12:23:29;;;;;;;24.73;13.30;;;13.70;99.90;;;;;;6336681;22;20014;-68
2023/04/16 12:26:01;;;;;;;20.58;12.50;;;13.80;99.90;;;;;;6336589;22;20038;-68
2023/04/16 12:28:28;;;;;;;19.13;11.85;;;13.80;99.90;;;;;;6364783;22;20021;-67
2023/04/16 12:30:54;;;;;;;20.88;11.85;;;13.80;99.90;;;;;;6336508;22;20030;-68
2023/04/16 12:33:20;;;;;;;22.10;12.35;;;13.80;99.90;;;;;;6364897;22;20010;-67
2023/04/16 12:35:46;;;;;;;18.67;11.63;;;14.00;99.90;;;;;;6365127;22;20364;-67
2023/04/16 12:38:13;;;;;;;21.95;11.25;;;14.10;99.90;;;;;;6365791;22;20019;-68
2023/04/16 12:40:40;;;;;;;21.60;11.70;;;14.10;99.90;;;;;;6336957;22;20015;-68
2023/04/16 12:43:05;;;;;;;21.20;11.65;;;14.00;99.90;;;;;;6365215;22;20068;-68
2023/04/16 12:45:31;;;;;;;16.85;10.95;;;14.10;99.90;;;;;;6364639;22;20010;-68
2023/04/16 12:47:57;;;;;;;21.52;11.73;;;14.20;99.90;;;;;;6336582;22;20022;-67
2023/04/16 12:50:22;;;;;;;20.23;11.35;;;14.20;99.90;;;;;;6364146;22;20111;-68
2023/04/16 12:52:48;;;;;;;21.38;12.02;;;14.30;99.90;;;;;;6364309;22;20445;-68
2023/04/16 12:55:14;;;;;;;22.40;11.48;;;14.20;99.90;;;;;;6364750;22;20022;-68
2023/04/16 12:57:40;;;;;;;19.75;12.43;;;14.20;99.90;;;;;;6364381;22;20457;-68
2023/04/16 13:00:09;;;;;;;21.60;12.10;;;14.10;99.90;;;;;;6364097;22;20010;-68
2023/04/16 13:02:35;;;;;;;22.25;11.80;;;14.10;99.90;;;;;;6363887;22;20036;-67